sensor_id;sensor_type;location;lat;lon;timestamp;P1;durP1;ratioP1;P2;durP2;ratioP2
3333;SDS011;1679;50.392;8.008;2024-01-30T00:01:52;33.23;;;23.30;;
3333;SDS011;1679;50.392;8.008;2024-01-30T00:04:17;34.53;;;24.20;;
3333;SDS011;1679;50.392;8.008;2024-01-30T00:06:43;30.67;;;22.03;;
3333;SDS011;1679;50.392;8.008;2024-01-30T00:09:09;37.23;;;22.43;;
3333;SDS011;1679;50.392;8.008;2024-01-30T00:11:37;31.90;;;22.67;;
3333;SDS011;1679;50.392;8.008;2024-01-30T00:14:03;31.90;;;21.70;;
3333;SDS011;1679;50.392;8.008;2024-01-30T00:16:29;30.43;;;21.87;;
3333;SDS011;1679;50.392;8.008;2024-01-30T00:18:55;33.37;;;22.80;;
3333;SDS011;1679;50.392;8.008;2024-01-30T00:21:21;30.03;;;21.67;;
3333;SDS011;1679;50.392;8.008;2024-01-30T00:23:46;29.00;;;21.10;;
3333;SDS011;1679;50.392;8.008;2024-01-30T00:26:12;27.70;;;19.80;;
3333;SDS011;1679;50.392;8.008;2024-01-30T00:28:39;28.67;;;21.33;;
3333;SDS011;1679;50.392;8.008;2024-01-30T00:31:06;31.73;;;19.70;;
3333;SDS011;1679;50.392;8.008;2024-01-30T00:33:31;28.90;;;19.90;;
3333;SDS011;1679;50.392;8.008;2024-01-30T00:35:57;30.70;;;20.03;;
3333;SDS011;1679;50.392;8.008;2024-01-30T00:38:22;27.57;;;18.90;;
3333;SDS011;1679;50.392;8.008;2024-01-30T00:40:48;29.77;;;19.97;;
3333;SDS011;1679;50.392;8.008;2024-01-30T00:43:13;30.10;;;19.27;;
3333;SDS011;1679;50.392;8.008;2024-01-30T00:45:40;24.83;;;18.00;;
3333;SDS011;1679;50.392;8.008;2024-01-30T00:48:05;32.33;;;20.13;;
3333;SDS011;1679;50.392;8.008;2024-01-30T00:50:31;25.37;;;18.23;;
3333;SDS011;1679;50.392;8.008;2024-01-30T00:52:56;24.20;;;17.20;;
3333;SDS011;1679;50.392;8.008;2024-01-30T00:55:22;27.80;;;18.70;;
3333;SDS011;1679;50.392;8.008;2024-01-30T00:57:48;22.63;;;17.83;;
3333;SDS011;1679;50.392;8.008;2024-01-30T01:00:13;27.43;;;19.33;;
3333;SDS011;1679;50.392;8.008;2024-01-30T01:02:42;30.07;;;19.50;;
3333;SDS011;1679;50.392;8.008;2024-01-30T01:05:07;26.60;;;17.90;;
3333;SDS011;1679;50.392;8.008;2024-01-30T01:07:33;26.70;;;18.33;;
3333;SDS011;1679;50.392;8.008;2024-01-30T01:09:59;24.70;;;18.27;;
3333;SDS011;1679;50.392;8.008;2024-01-30T01:12:24;27.97;;;19.60;;
3333;SDS011;1679;50.392;8.008;2024-01-30T01:14:51;28.10;;;19.50;;
3333;SDS011;1679;50.392;8.008;2024-01-30T01:17:17;28.70;;;18.93;;
3333;SDS011;1679;50.392;8.008;2024-01-30T01:19:43;26.30;;;19.90;;
3333;SDS011;1679;50.392;8.008;2024-01-30T01:22:09;25.93;;;18.80;;
3333;SDS011;1679;50.392;8.008;2024-01-30T01:24:35;31.77;;;20.00;;
3333;SDS011;1679;50.392;8.008;2024-01-30T01:27:01;25.20;;;17.30;;
3333;SDS011;1679;50.392;8.008;2024-01-30T01:29:27;28.70;;;19.50;;
3333;SDS011;1679;50.392;8.008;2024-01-30T01:31:56;28.37;;;19.60;;
3333;SDS011;1679;50.392;8.008;2024-01-30T01:34:22;31.73;;;19.97;;
3333;SDS011;1679;50.392;8.008;2024-01-30T01:36:49;26.40;;;19.87;;
3333;SDS011;1679;50.392;8.008;2024-01-30T01:39:15;27.17;;;20.03;;
3333;SDS011;1679;50.392;8.008;2024-01-30T01:41:41;25.67;;;19.43;;
3333;SDS011;1679;50.392;8.008;2024-01-30T01:44:07;24.83;;;19.00;;
3333;SDS011;1679;50.392;8.008;2024-01-30T01:46:33;29.80;;;20.70;;
3333;SDS011;1679;50.392;8.008;2024-01-30T01:48:59;28.37;;;19.00;;
3333;SDS011;1679;50.392;8.008;2024-01-30T01:51:30;27.60;;;18.90;;
3333;SDS011;1679;50.392;8.008;2024-01-30T01:53:58;27.10;;;19.67;;
3333;SDS011;1679;50.392;8.008;2024-01-30T01:56:28;29.83;;;20.33;;
3333;SDS011;1679;50.392;8.008;2024-01-30T01:58:55;27.03;;;19.37;;
3333;SDS011;1679;50.392;8.008;2024-01-30T02:01:24;26.77;;;18.80;;
3333;SDS011;1679;50.392;8.008;2024-01-30T02:03:52;30.53;;;19.40;;
3333;SDS011;1679;50.392;8.008;2024-01-30T02:06:18;28.50;;;18.60;;
3333;SDS011;1679;50.392;8.008;2024-01-30T02:08:44;28.07;;;18.80;;
3333;SDS011;1679;50.392;8.008;2024-01-30T02:11:09;29.30;;;20.80;;
3333;SDS011;1679;50.392;8.008;2024-01-30T02:13:36;26.73;;;20.03;;
3333;SDS011;1679;50.392;8.008;2024-01-30T02:16:02;28.93;;;19.53;;
3333;SDS011;1679;50.392;8.008;2024-01-30T02:18:27;25.87;;;18.27;;
3333;SDS011;1679;50.392;8.008;2024-01-30T02:20:53;28.87;;;18.77;;
3333;SDS011;1679;50.392;8.008;2024-01-30T02:23:21;29.20;;;18.67;;
3333;SDS011;1679;50.392;8.008;2024-01-30T02:25:49;28.27;;;19.27;;
3333;SDS011;1679;50.392;8.008;2024-01-30T02:28:17;28.67;;;20.20;;
3333;SDS011;1679;50.392;8.008;2024-01-30T02:30:43;24.23;;;19.27;;
3333;SDS011;1679;50.392;8.008;2024-01-30T02:33:09;29.70;;;19.70;;
3333;SDS011;1679;50.392;8.008;2024-01-30T02:35:36;27.20;;;18.30;;
3333;SDS011;1679;50.392;8.008;2024-01-30T02:38:04;28.40;;;18.50;;
3333;SDS011;1679;50.392;8.008;2024-01-30T02:40:30;27.47;;;19.87;;
3333;SDS011;1679;50.392;8.008;2024-01-30T02:42:56;26.73;;;20.33;;
3333;SDS011;1679;50.392;8.008;2024-01-30T02:45:23;26.80;;;19.47;;
3333;SDS011;1679;50.392;8.008;2024-01-30T02:47:49;28.33;;;19.57;;
3333;SDS011;1679;50.392;8.008;2024-01-30T02:50:14;27.43;;;19.00;;
3333;SDS011;1679;50.392;8.008;2024-01-30T02:52:41;27.50;;;18.03;;
3333;SDS011;1679;50.392;8.008;2024-01-30T02:55:08;28.80;;;20.50;;
3333;SDS011;1679;50.392;8.008;2024-01-30T02:57:34;25.80;;;18.50;;
3333;SDS011;1679;50.392;8.008;2024-01-30T03:00:00;25.83;;;18.70;;
3333;SDS011;1679;50.392;8.008;2024-01-30T03:02:26;26.70;;;17.37;;
3333;SDS011;1679;50.392;8.008;2024-01-30T03:04:52;27.47;;;19.87;;
3333;SDS011;1679;50.392;8.008;2024-01-30T03:07:20;24.20;;;17.20;;
3333;SDS011;1679;50.392;8.008;2024-01-30T03:09:45;23.93;;;18.43;;
3333;SDS011;1679;50.392;8.008;2024-01-30T03:12:11;27.13;;;18.00;;
3333;SDS011;1679;50.392;8.008;2024-01-30T03:14:36;29.53;;;18.87;;
3333;SDS011;1679;50.392;8.008;2024-01-30T03:17:02;26.23;;;17.83;;
3333;SDS011;1679;50.392;8.008;2024-01-30T03:19:28;23.73;;;17.90;;
3333;SDS011;1679;50.392;8.008;2024-01-30T03:21:54;28.30;;;19.10;;
3333;SDS011;1679;50.392;8.008;2024-01-30T03:24:19;29.53;;;17.47;;
3333;SDS011;1679;50.392;8.008;2024-01-30T03:26:45;29.23;;;19.53;;
3333;SDS011;1679;50.392;8.008;2024-01-30T03:29:11;34.43;;;20.43;;
3333;SDS011;1679;50.392;8.008;2024-01-30T03:31:36;31.70;;;20.47;;
3333;SDS011;1679;50.392;8.008;2024-01-30T03:34:02;28.80;;;19.50;;
3333;SDS011;1679;50.392;8.008;2024-01-30T03:36:27;27.27;;;19.10;;
3333;SDS011;1679;50.392;8.008;2024-01-30T03:38:53;29.73;;;20.07;;
3333;SDS011;1679;50.392;8.008;2024-01-30T03:41:20;26.03;;;19.77;;
3333;SDS011;1679;50.392;8.008;2024-01-30T03:43:46;32.23;;;19.70;;
3333;SDS011;1679;50.392;8.008;2024-01-30T03:46:13;34.50;;;21.30;;
3333;SDS011;1679;50.392;8.008;2024-01-30T03:48:40;38.83;;;21.97;;
3333;SDS011;1679;50.392;8.008;2024-01-30T03:51:05;50.73;;;23.80;;
3333;SDS011;1679;50.392;8.008;2024-01-30T03:53:31;37.67;;;21.20;;
3333;SDS011;1679;50.392;8.008;2024-01-30T03:55:56;40.20;;;22.47;;
3333;SDS011;1679;50.392;8.008;2024-01-30T03:58:22;39.70;;;24.90;;
3333;SDS011;1679;50.392;8.008;2024-01-30T04:00:47;44.90;;;22.07;;
3333;SDS011;1679;50.392;8.008;2024-01-30T04:03:14;40.60;;;22.70;;
3333;SDS011;1679;50.392;8.008;2024-01-30T04:05:40;33.73;;;22.53;;
3333;SDS011;1679;50.392;8.008;2024-01-30T04:08:06;36.20;;;22.57;;
3333;SDS011;1679;50.392;8.008;2024-01-30T04:10:32;39.37;;;23.93;;
3333;SDS011;1679;50.392;8.008;2024-01-30T04:12:58;39.30;;;22.43;;
3333;SDS011;1679;50.392;8.008;2024-01-30T04:15:24;35.40;;;22.17;;
3333;SDS011;1679;50.392;8.008;2024-01-30T04:17:52;40.33;;;26.60;;
3333;SDS011;1679;50.392;8.008;2024-01-30T04:20:17;40.80;;;24.13;;
3333;SDS011;1679;50.392;8.008;2024-01-30T04:22:43;54.00;;;24.67;;
3333;SDS011;1679;50.392;8.008;2024-01-30T04:25:09;37.97;;;23.23;;
3333;SDS011;1679;50.392;8.008;2024-01-30T04:27:35;56.20;;;23.10;;
3333;SDS011;1679;50.392;8.008;2024-01-30T04:30:01;78.53;;;27.33;;
3333;SDS011;1679;50.392;8.008;2024-01-30T04:32:27;40.03;;;21.50;;
3333;SDS011;1679;50.392;8.008;2024-01-30T04:34:52;42.27;;;24.30;;
3333;SDS011;1679;50.392;8.008;2024-01-30T04:37:17;32.80;;;20.63;;
3333;SDS011;1679;50.392;8.008;2024-01-30T04:39:43;42.77;;;22.43;;
3333;SDS011;1679;50.392;8.008;2024-01-30T04:42:10;39.77;;;23.27;;
3333;SDS011;1679;50.392;8.008;2024-01-30T04:44:35;35.40;;;22.60;;
3333;SDS011;1679;50.392;8.008;2024-01-30T04:47:01;35.10;;;21.73;;
3333;SDS011;1679;50.392;8.008;2024-01-30T04:49:27;39.70;;;22.83;;
3333;SDS011;1679;50.392;8.008;2024-01-30T04:51:54;33.77;;;21.27;;
3333;SDS011;1679;50.392;8.008;2024-01-30T04:54:19;32.47;;;21.03;;
3333;SDS011;1679;50.392;8.008;2024-01-30T04:56:45;26.97;;;19.13;;
3333;SDS011;1679;50.392;8.008;2024-01-30T04:59:11;32.23;;;21.20;;
3333;SDS011;1679;50.392;8.008;2024-01-30T05:01:37;24.23;;;18.43;;
3333;SDS011;1679;50.392;8.008;2024-01-30T05:04:02;30.20;;;19.73;;
3333;SDS011;1679;50.392;8.008;2024-01-30T05:06:28;25.50;;;19.00;;
3333;SDS011;1679;50.392;8.008;2024-01-30T05:08:54;30.17;;;19.43;;
3333;SDS011;1679;50.392;8.008;2024-01-30T05:11:20;23.60;;;18.80;;
3333;SDS011;1679;50.392;8.008;2024-01-30T05:13:46;25.07;;;18.30;;
3333;SDS011;1679;50.392;8.008;2024-01-30T05:16:11;36.07;;;20.80;;
3333;SDS011;1679;50.392;8.008;2024-01-30T05:18:37;30.60;;;18.40;;
3333;SDS011;1679;50.392;8.008;2024-01-30T05:21:02;32.03;;;19.70;;
3333;SDS011;1679;50.392;8.008;2024-01-30T05:23:28;29.00;;;19.07;;
3333;SDS011;1679;50.392;8.008;2024-01-30T05:25:55;28.60;;;19.70;;
3333;SDS011;1679;50.392;8.008;2024-01-30T05:28:22;32.70;;;19.03;;
3333;SDS011;1679;50.392;8.008;2024-01-30T05:30:47;30.73;;;20.50;;
3333;SDS011;1679;50.392;8.008;2024-01-30T05:33:13;27.80;;;20.70;;
3333;SDS011;1679;50.392;8.008;2024-01-30T05:35:38;39.90;;;22.27;;
3333;SDS011;1679;50.392;8.008;2024-01-30T05:38:04;47.30;;;25.00;;
3333;SDS011;1679;50.392;8.008;2024-01-30T05:40:32;41.60;;;24.23;;
3333;SDS011;1679;50.392;8.008;2024-01-30T05:42:58;38.80;;;24.40;;
3333;SDS011;1679;50.392;8.008;2024-01-30T05:45:28;36.33;;;22.27;;
3333;SDS011;1679;50.392;8.008;2024-01-30T05:47:54;57.17;;;24.10;;
3333;SDS011;1679;50.392;8.008;2024-01-30T05:50:20;44.83;;;25.53;;
3333;SDS011;1679;50.392;8.008;2024-01-30T05:52:48;40.83;;;22.60;;
3333;SDS011;1679;50.392;8.008;2024-01-30T05:55:13;54.50;;;24.87;;
3333;SDS011;1679;50.392;8.008;2024-01-30T05:57:39;36.90;;;24.73;;
3333;SDS011;1679;50.392;8.008;2024-01-30T06:00:05;30.60;;;22.50;;
3333;SDS011;1679;50.392;8.008;2024-01-30T06:02:32;40.70;;;24.53;;
3333;SDS011;1679;50.392;8.008;2024-01-30T06:04:58;37.27;;;23.60;;
3333;SDS011;1679;50.392;8.008;2024-01-30T06:07:23;34.67;;;22.63;;
3333;SDS011;1679;50.392;8.008;2024-01-30T06:09:49;31.80;;;23.10;;
3333;SDS011;1679;50.392;8.008;2024-01-30T06:12:14;32.50;;;22.90;;
3333;SDS011;1679;50.392;8.008;2024-01-30T06:14:40;35.07;;;21.87;;
3333;SDS011;1679;50.392;8.008;2024-01-30T06:17:08;31.20;;;22.00;;
3333;SDS011;1679;50.392;8.008;2024-01-30T06:19:34;29.93;;;20.07;;
3333;SDS011;1679;50.392;8.008;2024-01-30T06:21:59;32.70;;;21.90;;
3333;SDS011;1679;50.392;8.008;2024-01-30T06:24:25;32.33;;;22.23;;
3333;SDS011;1679;50.392;8.008;2024-01-30T06:26:52;29.73;;;21.70;;
3333;SDS011;1679;50.392;8.008;2024-01-30T06:29:18;32.47;;;21.67;;
3333;SDS011;1679;50.392;8.008;2024-01-30T06:31:43;36.00;;;21.93;;
3333;SDS011;1679;50.392;8.008;2024-01-30T06:34:09;34.17;;;23.03;;
3333;SDS011;1679;50.392;8.008;2024-01-30T06:36:36;34.90;;;23.43;;
3333;SDS011;1679;50.392;8.008;2024-01-30T06:39:03;40.13;;;25.70;;
3333;SDS011;1679;50.392;8.008;2024-01-30T06:41:29;46.83;;;25.50;;
3333;SDS011;1679;50.392;8.008;2024-01-30T06:43:54;41.13;;;22.67;;
3333;SDS011;1679;50.392;8.008;2024-01-30T06:46:20;42.37;;;23.90;;
3333;SDS011;1679;50.392;8.008;2024-01-30T06:48:46;39.60;;;22.40;;
3333;SDS011;1679;50.392;8.008;2024-01-30T06:51:11;39.73;;;24.20;;
3333;SDS011;1679;50.392;8.008;2024-01-30T06:53:37;35.97;;;22.93;;
3333;SDS011;1679;50.392;8.008;2024-01-30T06:56:03;41.70;;;23.13;;
3333;SDS011;1679;50.392;8.008;2024-01-30T06:58:29;35.20;;;22.33;;
3333;SDS011;1679;50.392;8.008;2024-01-30T07:00:55;36.97;;;22.23;;
3333;SDS011;1679;50.392;8.008;2024-01-30T07:03:22;38.33;;;23.07;;
3333;SDS011;1679;50.392;8.008;2024-01-30T07:05:47;39.97;;;23.33;;
3333;SDS011;1679;50.392;8.008;2024-01-30T07:08:13;39.80;;;24.27;;
3333;SDS011;1679;50.392;8.008;2024-01-30T07:10:42;39.27;;;24.10;;
3333;SDS011;1679;50.392;8.008;2024-01-30T07:13:08;47.10;;;25.90;;
3333;SDS011;1679;50.392;8.008;2024-01-30T07:15:35;40.67;;;25.33;;
3333;SDS011;1679;50.392;8.008;2024-01-30T07:18:01;43.83;;;25.70;;
3333;SDS011;1679;50.392;8.008;2024-01-30T07:20:27;43.90;;;26.23;;
3333;SDS011;1679;50.392;8.008;2024-01-30T07:22:53;44.63;;;26.10;;
3333;SDS011;1679;50.392;8.008;2024-01-30T07:25:20;44.57;;;25.90;;
3333;SDS011;1679;50.392;8.008;2024-01-30T07:27:46;39.33;;;25.30;;
3333;SDS011;1679;50.392;8.008;2024-01-30T07:30:12;33.57;;;23.10;;
3333;SDS011;1679;50.392;8.008;2024-01-30T07:32:37;45.13;;;26.13;;
3333;SDS011;1679;50.392;8.008;2024-01-30T07:35:03;38.43;;;24.83;;
3333;SDS011;1679;50.392;8.008;2024-01-30T07:37:29;49.40;;;28.10;;
3333;SDS011;1679;50.392;8.008;2024-01-30T07:39:54;42.73;;;26.73;;
3333;SDS011;1679;50.392;8.008;2024-01-30T07:42:20;51.43;;;29.70;;
3333;SDS011;1679;50.392;8.008;2024-01-30T07:44:45;47.13;;;28.50;;
3333;SDS011;1679;50.392;8.008;2024-01-30T07:47:11;47.90;;;28.40;;
3333;SDS011;1679;50.392;8.008;2024-01-30T07:49:36;56.30;;;32.10;;
3333;SDS011;1679;50.392;8.008;2024-01-30T07:52:02;52.37;;;33.13;;
3333;SDS011;1679;50.392;8.008;2024-01-30T07:54:31;53.33;;;32.40;;
3333;SDS011;1679;50.392;8.008;2024-01-30T07:56:58;57.83;;;35.80;;
3333;SDS011;1679;50.392;8.008;2024-01-30T07:59:25;58.77;;;35.37;;
3333;SDS011;1679;50.392;8.008;2024-01-30T08:01:51;55.77;;;33.87;;
3333;SDS011;1679;50.392;8.008;2024-01-30T08:04:16;51.83;;;33.60;;
3333;SDS011;1679;50.392;8.008;2024-01-30T08:06:43;61.03;;;35.70;;
3333;SDS011;1679;50.392;8.008;2024-01-30T08:09:08;70.10;;;38.23;;
3333;SDS011;1679;50.392;8.008;2024-01-30T08:11:34;56.37;;;36.37;;
3333;SDS011;1679;50.392;8.008;2024-01-30T08:13:59;61.10;;;35.10;;
3333;SDS011;1679;50.392;8.008;2024-01-30T08:16:25;58.80;;;33.47;;
3333;SDS011;1679;50.392;8.008;2024-01-30T08:18:50;48.90;;;30.27;;
3333;SDS011;1679;50.392;8.008;2024-01-30T08:21:18;51.43;;;32.10;;
3333;SDS011;1679;50.392;8.008;2024-01-30T08:23:44;44.53;;;27.83;;
3333;SDS011;1679;50.392;8.008;2024-01-30T08:26:09;47.00;;;27.30;;
3333;SDS011;1679;50.392;8.008;2024-01-30T08:28:36;41.33;;;27.60;;
3333;SDS011;1679;50.392;8.008;2024-01-30T08:31:02;44.97;;;29.13;;
3333;SDS011;1679;50.392;8.008;2024-01-30T08:33:27;42.30;;;27.80;;
3333;SDS011;1679;50.392;8.008;2024-01-30T08:35:53;39.50;;;27.27;;
3333;SDS011;1679;50.392;8.008;2024-01-30T08:38:19;38.67;;;26.10;;
3333;SDS011;1679;50.392;8.008;2024-01-30T08:40:44;34.17;;;24.03;;
3333;SDS011;1679;50.392;8.008;2024-01-30T08:43:10;32.50;;;24.40;;
3333;SDS011;1679;50.392;8.008;2024-01-30T08:45:35;50.97;;;36.90;;
3333;SDS011;1679;50.392;8.008;2024-01-30T08:48:01;43.63;;;33.63;;
3333;SDS011;1679;50.392;8.008;2024-01-30T08:50:27;43.93;;;30.47;;
3333;SDS011;1679;50.392;8.008;2024-01-30T08:52:53;42.63;;;30.50;;
3333;SDS011;1679;50.392;8.008;2024-01-30T08:55:19;37.57;;;25.40;;
3333;SDS011;1679;50.392;8.008;2024-01-30T08:57:44;38.27;;;24.47;;
3333;SDS011;1679;50.392;8.008;2024-01-30T09:00:10;36.03;;;24.07;;
3333;SDS011;1679;50.392;8.008;2024-01-30T09:02:36;34.87;;;24.43;;
3333;SDS011;1679;50.392;8.008;2024-01-30T09:05:01;33.93;;;24.67;;
3333;SDS011;1679;50.392;8.008;2024-01-30T09:07:28;35.77;;;25.40;;
3333;SDS011;1679;50.392;8.008;2024-01-30T09:09:54;34.40;;;24.37;;
3333;SDS011;1679;50.392;8.008;2024-01-30T09:12:19;36.07;;;24.40;;
3333;SDS011;1679;50.392;8.008;2024-01-30T09:14:45;35.60;;;24.67;;
3333;SDS011;1679;50.392;8.008;2024-01-30T09:17:10;34.53;;;23.87;;
3333;SDS011;1679;50.392;8.008;2024-01-30T09:19:36;39.47;;;28.30;;
3333;SDS011;1679;50.392;8.008;2024-01-30T09:22:02;39.40;;;28.60;;
3333;SDS011;1679;50.392;8.008;2024-01-30T09:24:28;41.07;;;27.50;;
3333;SDS011;1679;50.392;8.008;2024-01-30T09:26:54;40.47;;;26.93;;
3333;SDS011;1679;50.392;8.008;2024-01-30T09:29:19;44.80;;;29.63;;
3333;SDS011;1679;50.392;8.008;2024-01-30T09:31:45;43.80;;;30.23;;
3333;SDS011;1679;50.392;8.008;2024-01-30T09:34:11;48.50;;;33.67;;
3333;SDS011;1679;50.392;8.008;2024-01-30T09:36:37;40.00;;;27.97;;
3333;SDS011;1679;50.392;8.008;2024-01-30T09:39:03;31.13;;;23.50;;
3333;SDS011;1679;50.392;8.008;2024-01-30T09:41:29;30.47;;;23.57;;
3333;SDS011;1679;50.392;8.008;2024-01-30T09:43:58;30.40;;;22.80;;
3333;SDS011;1679;50.392;8.008;2024-01-30T09:46:26;34.07;;;23.90;;
3333;SDS011;1679;50.392;8.008;2024-01-30T09:48:52;32.80;;;26.13;;
3333;SDS011;1679;50.392;8.008;2024-01-30T09:51:20;34.10;;;25.70;;
3333;SDS011;1679;50.392;8.008;2024-01-30T09:53:47;35.27;;;27.00;;
3333;SDS011;1679;50.392;8.008;2024-01-30T09:56:13;31.17;;;23.90;;
3333;SDS011;1679;50.392;8.008;2024-01-30T09:58:39;32.53;;;24.37;;
3333;SDS011;1679;50.392;8.008;2024-01-30T10:01:05;30.43;;;22.00;;
3333;SDS011;1679;50.392;8.008;2024-01-30T10:03:30;31.37;;;22.70;;
3333;SDS011;1679;50.392;8.008;2024-01-30T10:05:56;30.93;;;23.47;;
3333;SDS011;1679;50.392;8.008;2024-01-30T10:08:22;28.97;;;21.03;;
3333;SDS011;1679;50.392;8.008;2024-01-30T10:10:48;32.20;;;22.70;;
3333;SDS011;1679;50.392;8.008;2024-01-30T10:13:17;31.73;;;23.23;;
3333;SDS011;1679;50.392;8.008;2024-01-30T10:15:43;31.90;;;23.70;;
3333;SDS011;1679;50.392;8.008;2024-01-30T10:18:09;30.60;;;23.00;;
3333;SDS011;1679;50.392;8.008;2024-01-30T10:20:35;29.37;;;21.17;;
3333;SDS011;1679;50.392;8.008;2024-01-30T10:23:01;27.73;;;21.27;;
3333;SDS011;1679;50.392;8.008;2024-01-30T10:25:27;30.00;;;22.53;;
3333;SDS011;1679;50.392;8.008;2024-01-30T10:27:53;32.70;;;23.00;;
3333;SDS011;1679;50.392;8.008;2024-01-30T10:30:21;31.37;;;22.63;;
3333;SDS011;1679;50.392;8.008;2024-01-30T10:32:48;27.47;;;22.20;;
3333;SDS011;1679;50.392;8.008;2024-01-30T10:35:14;28.77;;;22.60;;
3333;SDS011;1679;50.392;8.008;2024-01-30T10:37:42;32.90;;;23.33;;
3333;SDS011;1679;50.392;8.008;2024-01-30T10:40:08;33.93;;;24.70;;
3333;SDS011;1679;50.392;8.008;2024-01-30T10:42:38;33.57;;;24.17;;
3333;SDS011;1679;50.392;8.008;2024-01-30T10:45:09;31.53;;;24.47;;
3333;SDS011;1679;50.392;8.008;2024-01-30T10:47:42;26.90;;;23.20;;
3333;SDS011;1679;50.392;8.008;2024-01-30T10:50:13;31.60;;;23.27;;
3333;SDS011;1679;50.392;8.008;2024-01-30T10:52:39;33.03;;;24.27;;
3333;SDS011;1679;50.392;8.008;2024-01-30T10:55:07;30.93;;;24.83;;
3333;SDS011;1679;50.392;8.008;2024-01-30T10:57:34;29.20;;;23.80;;
3333;SDS011;1679;50.392;8.008;2024-01-30T11:00:01;31.33;;;24.83;;
3333;SDS011;1679;50.392;8.008;2024-01-30T11:02:30;31.67;;;23.40;;
3333;SDS011;1679;50.392;8.008;2024-01-30T11:04:58;29.37;;;23.20;;
3333;SDS011;1679;50.392;8.008;2024-01-30T11:07:26;30.20;;;23.90;;
3333;SDS011;1679;50.392;8.008;2024-01-30T11:12:29;33.33;;;24.50;;
3333;SDS011;1679;50.392;8.008;2024-01-30T11:15:07;32.30;;;23.40;;
3333;SDS011;1679;50.392;8.008;2024-01-30T11:20:36;33.60;;;23.93;;
3333;SDS011;1679;50.392;8.008;2024-01-30T11:23:01;30.87;;;23.97;;
3333;SDS011;1679;50.392;8.008;2024-01-30T11:25:31;30.97;;;23.50;;
3333;SDS011;1679;50.392;8.008;2024-01-30T11:27:57;28.03;;;23.73;;
3333;SDS011;1679;50.392;8.008;2024-01-30T11:33:02;30.70;;;21.77;;
3333;SDS011;1679;50.392;8.008;2024-01-30T11:35:33;31.13;;;23.60;;
3333;SDS011;1679;50.392;8.008;2024-01-30T11:38:09;28.70;;;22.73;;
3333;SDS011;1679;50.392;8.008;2024-01-30T11:40:39;35.60;;;27.00;;
3333;SDS011;1679;50.392;8.008;2024-01-30T11:43:06;53.87;;;37.70;;
3333;SDS011;1679;50.392;8.008;2024-01-30T11:45:33;30.67;;;23.47;;
3333;SDS011;1679;50.392;8.008;2024-01-30T11:47:59;33.80;;;27.50;;
3333;SDS011;1679;50.392;8.008;2024-01-30T11:50:27;33.07;;;25.10;;
3333;SDS011;1679;50.392;8.008;2024-01-30T11:52:54;77.17;;;46.80;;
3333;SDS011;1679;50.392;8.008;2024-01-30T11:55:19;122.03;;;66.40;;
3333;SDS011;1679;50.392;8.008;2024-01-30T11:57:45;62.67;;;39.60;;
3333;SDS011;1679;50.392;8.008;2024-01-30T12:00:14;30.57;;;23.10;;
3333;SDS011;1679;50.392;8.008;2024-01-30T12:02:41;33.20;;;23.93;;
3333;SDS011;1679;50.392;8.008;2024-01-30T12:05:07;33.70;;;24.30;;
3333;SDS011;1679;50.392;8.008;2024-01-30T12:07:34;33.87;;;23.67;;
3333;SDS011;1679;50.392;8.008;2024-01-30T12:09:59;31.10;;;23.50;;
3333;SDS011;1679;50.392;8.008;2024-01-30T12:12:25;30.40;;;22.90;;
3333;SDS011;1679;50.392;8.008;2024-01-30T12:14:52;28.33;;;21.60;;
3333;SDS011;1679;50.392;8.008;2024-01-30T12:17:28;33.63;;;23.90;;
3333;SDS011;1679;50.392;8.008;2024-01-30T12:20:07;28.33;;;22.47;;
3333;SDS011;1679;50.392;8.008;2024-01-30T12:22:37;28.93;;;22.77;;
3333;SDS011;1679;50.392;8.008;2024-01-30T12:25:08;27.60;;;21.80;;
3333;SDS011;1679;50.392;8.008;2024-01-30T12:27:40;31.00;;;23.13;;
3333;SDS011;1679;50.392;8.008;2024-01-30T12:30:11;31.23;;;22.97;;
3333;SDS011;1679;50.392;8.008;2024-01-30T12:32:41;29.57;;;23.43;;
3333;SDS011;1679;50.392;8.008;2024-01-30T12:35:12;30.50;;;23.87;;
3333;SDS011;1679;50.392;8.008;2024-01-30T12:37:39;30.60;;;23.73;;
3333;SDS011;1679;50.392;8.008;2024-01-30T12:40:05;28.87;;;22.50;;
3333;SDS011;1679;50.392;8.008;2024-01-30T12:42:34;32.30;;;23.03;;
3333;SDS011;1679;50.392;8.008;2024-01-30T12:45:01;29.33;;;22.97;;
3333;SDS011;1679;50.392;8.008;2024-01-30T12:47:28;26.33;;;22.27;;
3333;SDS011;1679;50.392;8.008;2024-01-30T12:49:54;31.20;;;21.90;;
3333;SDS011;1679;50.392;8.008;2024-01-30T12:52:20;29.63;;;22.40;;
3333;SDS011;1679;50.392;8.008;2024-01-30T12:54:46;26.60;;;21.10;;
3333;SDS011;1679;50.392;8.008;2024-01-30T12:57:13;26.10;;;21.10;;
3333;SDS011;1679;50.392;8.008;2024-01-30T12:59:38;23.53;;;19.67;;
3333;SDS011;1679;50.392;8.008;2024-01-30T13:02:04;24.40;;;19.67;;
3333;SDS011;1679;50.392;8.008;2024-01-30T13:04:30;23.63;;;19.73;;
3333;SDS011;1679;50.392;8.008;2024-01-30T13:06:56;26.03;;;20.53;;
3333;SDS011;1679;50.392;8.008;2024-01-30T13:09:22;24.53;;;19.83;;
3333;SDS011;1679;50.392;8.008;2024-01-30T13:11:48;27.83;;;22.20;;
3333;SDS011;1679;50.392;8.008;2024-01-30T13:14:16;26.17;;;20.53;;
3333;SDS011;1679;50.392;8.008;2024-01-30T13:16:42;28.60;;;20.30;;
3333;SDS011;1679;50.392;8.008;2024-01-30T13:19:08;28.40;;;23.00;;
3333;SDS011;1679;50.392;8.008;2024-01-30T13:21:33;27.60;;;23.63;;
3333;SDS011;1679;50.392;8.008;2024-01-30T13:23:59;30.90;;;23.03;;
3333;SDS011;1679;50.392;8.008;2024-01-30T13:26:25;27.20;;;22.27;;
3333;SDS011;1679;50.392;8.008;2024-01-30T13:28:50;26.70;;;21.03;;
3333;SDS011;1679;50.392;8.008;2024-01-30T13:31:16;28.10;;;21.57;;
3333;SDS011;1679;50.392;8.008;2024-01-30T13:33:44;25.53;;;19.93;;
3333;SDS011;1679;50.392;8.008;2024-01-30T13:36:10;25.90;;;18.63;;
3333;SDS011;1679;50.392;8.008;2024-01-30T13:38:36;27.07;;;21.67;;
3333;SDS011;1679;50.392;8.008;2024-01-30T13:41:02;23.27;;;20.23;;
3333;SDS011;1679;50.392;8.008;2024-01-30T13:43:28;29.20;;;22.30;;
3333;SDS011;1679;50.392;8.008;2024-01-30T13:45:54;27.03;;;21.40;;
3333;SDS011;1679;50.392;8.008;2024-01-30T13:48:21;25.80;;;20.30;;
3333;SDS011;1679;50.392;8.008;2024-01-30T13:50:47;30.00;;;23.13;;
3333;SDS011;1679;50.392;8.008;2024-01-30T13:53:13;28.30;;;21.47;;
3333;SDS011;1679;50.392;8.008;2024-01-30T13:55:38;26.20;;;21.40;;
3333;SDS011;1679;50.392;8.008;2024-01-30T13:58:07;31.57;;;23.13;;
3333;SDS011;1679;50.392;8.008;2024-01-30T14:00:33;46.67;;;36.00;;
3333;SDS011;1679;50.392;8.008;2024-01-30T14:02:58;40.57;;;29.40;;
3333;SDS011;1679;50.392;8.008;2024-01-30T14:05:25;26.70;;;23.70;;
3333;SDS011;1679;50.392;8.008;2024-01-30T14:07:52;31.23;;;23.87;;
3333;SDS011;1679;50.392;8.008;2024-01-30T14:10:17;28.30;;;23.10;;
3333;SDS011;1679;50.392;8.008;2024-01-30T14:12:43;24.90;;;21.83;;
3333;SDS011;1679;50.392;8.008;2024-01-30T14:15:10;31.90;;;24.57;;
3333;SDS011;1679;50.392;8.008;2024-01-30T14:17:39;29.80;;;23.47;;
3333;SDS011;1679;50.392;8.008;2024-01-30T14:20:05;34.67;;;24.03;;
3333;SDS011;1679;50.392;8.008;2024-01-30T14:22:32;29.17;;;23.67;;
3333;SDS011;1679;50.392;8.008;2024-01-30T14:24:59;29.03;;;22.37;;
3333;SDS011;1679;50.392;8.008;2024-01-30T14:27:25;29.77;;;24.60;;
3333;SDS011;1679;50.392;8.008;2024-01-30T14:29:52;31.20;;;25.03;;
3333;SDS011;1679;50.392;8.008;2024-01-30T14:32:17;31.57;;;26.87;;
3333;SDS011;1679;50.392;8.008;2024-01-30T14:34:43;38.17;;;28.10;;
3333;SDS011;1679;50.392;8.008;2024-01-30T14:37:08;32.00;;;27.17;;
3333;SDS011;1679;50.392;8.008;2024-01-30T14:39:34;31.47;;;27.57;;
3333;SDS011;1679;50.392;8.008;2024-01-30T14:42:02;37.10;;;26.70;;
3333;SDS011;1679;50.392;8.008;2024-01-30T14:44:28;33.60;;;28.37;;
3333;SDS011;1679;50.392;8.008;2024-01-30T14:46:54;32.67;;;27.23;;
3333;SDS011;1679;50.392;8.008;2024-01-30T14:49:20;33.43;;;27.53;;
3333;SDS011;1679;50.392;8.008;2024-01-30T14:51:46;34.83;;;29.47;;